Crestview, FL

12:00 AM CDT on July 25, 2016 (GMT -0500)
Sikes | | Change Station

Elev 213 ft 30.78 °N, 86.52 °W | Updated 7 minutes ago

Clear
Clear
75 °F
Feels Like 75 °F
N
0
Wind Variable Wind from North

Today
High -- | Low -- °F
--% Chance of Precip.
Yesterday
High -- | Low -- °F
Precip. -- in
Pressure 30.02 in
Visibility 9.0 miles
Clouds Clear
Dew Point 73 °F
Humidity 94%
Rainfall 0.22 in
Snow Depth Not available.
5:59 AM 7:45 PM
Waning Gibbous, 69% visible
METAR KCEW 250453Z AUTO 00000KT 9SM CLR 24/23 A3003 RMK AO2 SLP166 T02390228
Pressure 30.02 in
Visibility 9.0 miles
Clouds Clear
Dew Point 73 °F
Humidity 94%
Rainfall 0.22 in
Snow Depth Not available.
5:59 AM 7:45 PM
Waning Gibbous, 69% visible
METAR KCEW 250453Z AUTO 00000KT 9SM CLR 24/23 A3003 RMK AO2 SLP166 T02390228

10-Day Weather Forecast

Almanac

Astronomy

Jul. 25, 2016 Rise Set
Actual Time
Civil Twilight
Nautical Twilight
Astronomical Twilight
Moon
Length of Visible Light
Length of Day
Tomorrow will be .
, % of the Moon is Illuminated

Today's Extremes

State Highs State Lows

Community

WunderPhotos

Upload Photos

1,927,266 photos uploaded!

WunderBlog® & News

Nearby

Air Quality

  Air Quality AQ Index Pollutant
Not available.

Snow Depth

Station Depth Elevation

Earthquake Activity

City Distance Mag. Time & Date
Minimum magnitude displayed is 2.5.

Coastal Water Temperatures

Place Temperature

Stations

Nearby Weather Stations

Station Location Temp. Windchill Dew Point Humidity Wind Precip. Elev Updated Type
                   

Watches & Warnings

There are currently no watches in effect.